sensor_id;sensor_type;location;lat;lon;timestamp;P1;durP1;ratioP1;P2;durP2;ratioP2
7340;SDS011;6870;50.944;6.932;2022-12-11T00:01:09;6.70;;;5.50;;
7340;SDS011;6870;50.944;6.932;2022-12-11T00:03:41;5.90;;;4.80;;
7340;SDS011;6870;50.944;6.932;2022-12-11T00:06:10;10.40;;;6.20;;
7340;SDS011;6870;50.944;6.932;2022-12-11T00:08:40;7.03;;;5.43;;
7340;SDS011;6870;50.944;6.932;2022-12-11T00:11:08;6.00;;;5.17;;
7340;SDS011;6870;50.944;6.932;2022-12-11T00:13:39;5.60;;;4.70;;
7340;SDS011;6870;50.944;6.932;2022-12-11T00:19:31;5.73;;;4.77;;
7340;SDS011;6870;50.944;6.932;2022-12-11T00:22:00;7.73;;;5.10;;
7340;SDS011;6870;50.944;6.932;2022-12-11T00:24:28;6.83;;;5.40;;
7340;SDS011;6870;50.944;6.932;2022-12-11T00:26:56;7.43;;;5.60;;
7340;SDS011;6870;50.944;6.932;2022-12-11T00:29:25;5.40;;;4.30;;
7340;SDS011;6870;50.944;6.932;2022-12-11T00:31:53;6.20;;;4.47;;
7340;SDS011;6870;50.944;6.932;2022-12-11T00:34:21;6.17;;;4.47;;
7340;SDS011;6870;50.944;6.932;2022-12-11T00:36:50;5.70;;;4.20;;
7340;SDS011;6870;50.944;6.932;2022-12-11T00:39:18;4.93;;;4.43;;
7340;SDS011;6870;50.944;6.932;2022-12-11T00:41:46;5.70;;;4.90;;
7340;SDS011;6870;50.944;6.932;2022-12-11T00:44:14;5.40;;;4.90;;
7340;SDS011;6870;50.944;6.932;2022-12-11T00:46:42;6.40;;;4.50;;
7340;SDS011;6870;50.944;6.932;2022-12-11T00:49:10;5.50;;;4.17;;
7340;SDS011;6870;50.944;6.932;2022-12-11T00:51:38;4.87;;;4.10;;
7340;SDS011;6870;50.944;6.932;2022-12-11T00:54:07;5.30;;;4.33;;
7340;SDS011;6870;50.944;6.932;2022-12-11T00:56:35;6.40;;;3.93;;
7340;SDS011;6870;50.944;6.932;2022-12-11T00:59:03;4.40;;;4.00;;
7340;SDS011;6870;50.944;6.932;2022-12-11T01:01:31;5.20;;;4.70;;
7340;SDS011;6870;50.944;6.932;2022-12-11T01:04:00;4.80;;;4.23;;
7340;SDS011;6870;50.944;6.932;2022-12-11T01:06:28;6.10;;;4.47;;
7340;SDS011;6870;50.944;6.932;2022-12-11T01:08:56;5.30;;;4.40;;
7340;SDS011;6870;50.944;6.932;2022-12-11T01:11:40;5.23;;;4.17;;
7340;SDS011;6870;50.944;6.932;2022-12-11T01:14:10;5.97;;;4.33;;
7340;SDS011;6870;50.944;6.932;2022-12-11T01:16:38;5.27;;;4.77;;
7340;SDS011;6870;50.944;6.932;2022-12-11T01:19:06;5.40;;;4.87;;
7340;SDS011;6870;50.944;6.932;2022-12-11T01:21:34;6.30;;;4.73;;
7340;SDS011;6870;50.944;6.932;2022-12-11T01:24:02;5.83;;;4.30;;
7340;SDS011;6870;50.944;6.932;2022-12-11T01:26:31;7.10;;;4.97;;
7340;SDS011;6870;50.944;6.932;2022-12-11T01:29:01;4.27;;;3.87;;
7340;SDS011;6870;50.944;6.932;2022-12-11T01:31:29;5.80;;;4.13;;
7340;SDS011;6870;50.944;6.932;2022-12-11T01:33:57;6.50;;;4.33;;
7340;SDS011;6870;50.944;6.932;2022-12-11T01:36:25;10.80;;;6.03;;
7340;SDS011;6870;50.944;6.932;2022-12-11T01:38:53;4.23;;;3.83;;
7340;SDS011;6870;50.944;6.932;2022-12-11T01:41:22;6.20;;;4.50;;
7340;SDS011;6870;50.944;6.932;2022-12-11T01:43:57;5.13;;;4.27;;
7340;SDS011;6870;50.944;6.932;2022-12-11T01:46:30;5.10;;;4.50;;
7340;SDS011;6870;50.944;6.932;2022-12-11T01:49:02;5.27;;;4.00;;
7340;SDS011;6870;50.944;6.932;2022-12-11T01:51:35;7.40;;;4.90;;
7340;SDS011;6870;50.944;6.932;2022-12-11T01:54:08;6.90;;;4.47;;
7340;SDS011;6870;50.944;6.932;2022-12-11T01:56:40;4.50;;;4.07;;
7340;SDS011;6870;50.944;6.932;2022-12-11T01:59:11;5.10;;;4.57;;
7340;SDS011;6870;50.944;6.932;2022-12-11T02:01:43;4.80;;;4.17;;
7340;SDS011;6870;50.944;6.932;2022-12-11T02:04:15;4.80;;;4.30;;
7340;SDS011;6870;50.944;6.932;2022-12-11T02:06:47;5.30;;;4.50;;
7340;SDS011;6870;50.944;6.932;2022-12-11T02:09:18;4.77;;;4.30;;
7340;SDS011;6870;50.944;6.932;2022-12-11T02:11:51;5.53;;;4.20;;
7340;SDS011;6870;50.944;6.932;2022-12-11T02:14:31;5.80;;;3.67;;
7340;SDS011;6870;50.944;6.932;2022-12-11T02:17:08;4.77;;;4.27;;
7340;SDS011;6870;50.944;6.932;2022-12-11T02:19:46;5.03;;;4.43;;
7340;SDS011;6870;50.944;6.932;2022-12-11T02:22:27;6.33;;;4.00;;
7340;SDS011;6870;50.944;6.932;2022-12-11T02:25:15;5.10;;;4.27;;
7340;SDS011;6870;50.944;6.932;2022-12-11T02:27:51;5.53;;;4.27;;
7340;SDS011;6870;50.944;6.932;2022-12-11T02:30:34;19.63;;;11.83;;
7340;SDS011;6870;50.944;6.932;2022-12-11T02:33:05;14.87;;;9.50;;
7340;SDS011;6870;50.944;6.932;2022-12-11T02:35:38;13.33;;;9.50;;
7340;SDS011;6870;50.944;6.932;2022-12-11T02:38:09;11.50;;;7.23;;
7340;SDS011;6870;50.944;6.932;2022-12-11T02:40:41;20.13;;;8.50;;
7340;SDS011;6870;50.944;6.932;2022-12-11T02:43:12;9.73;;;7.33;;
7340;SDS011;6870;50.944;6.932;2022-12-11T02:45:42;11.30;;;7.20;;
7340;SDS011;6870;50.944;6.932;2022-12-11T02:48:12;11.73;;;7.43;;
7340;SDS011;6870;50.944;6.932;2022-12-11T02:50:44;17.33;;;7.43;;
7340;SDS011;6870;50.944;6.932;2022-12-11T02:53:15;11.40;;;6.97;;
7340;SDS011;6870;50.944;6.932;2022-12-11T02:55:49;9.63;;;7.23;;
7340;SDS011;6870;50.944;6.932;2022-12-11T02:58:24;11.50;;;7.70;;
7340;SDS011;6870;50.944;6.932;2022-12-11T03:00:56;8.80;;;5.80;;
7340;SDS011;6870;50.944;6.932;2022-12-11T03:03:24;15.63;;;6.83;;
7340;SDS011;6870;50.944;6.932;2022-12-11T03:05:55;12.83;;;8.00;;
7340;SDS011;6870;50.944;6.932;2022-12-11T03:08:23;9.00;;;6.33;;
7340;SDS011;6870;50.944;6.932;2022-12-11T03:10:51;8.83;;;5.50;;
7340;SDS011;6870;50.944;6.932;2022-12-11T03:13:19;8.90;;;6.13;;
7340;SDS011;6870;50.944;6.932;2022-12-11T03:15:52;10.77;;;6.23;;
7340;SDS011;6870;50.944;6.932;2022-12-11T03:18:33;8.50;;;6.50;;
7340;SDS011;6870;50.944;6.932;2022-12-11T03:21:08;8.50;;;6.13;;
7340;SDS011;6870;50.944;6.932;2022-12-11T03:23:47;8.47;;;6.63;;
7340;SDS011;6870;50.944;6.932;2022-12-11T03:26:19;6.13;;;5.47;;
7340;SDS011;6870;50.944;6.932;2022-12-11T03:28:50;9.60;;;6.27;;
7340;SDS011;6870;50.944;6.932;2022-12-11T03:31:26;8.77;;;6.57;;
7340;SDS011;6870;50.944;6.932;2022-12-11T03:34:03;8.47;;;6.90;;
7340;SDS011;6870;50.944;6.932;2022-12-11T03:36:40;8.07;;;7.27;;
7340;SDS011;6870;50.944;6.932;2022-12-11T03:39:11;6.93;;;5.23;;
7340;SDS011;6870;50.944;6.932;2022-12-11T03:41:45;8.60;;;5.47;;
7340;SDS011;6870;50.944;6.932;2022-12-11T03:44:15;6.77;;;5.40;;
7340;SDS011;6870;50.944;6.932;2022-12-11T03:46:46;9.37;;;5.70;;
7340;SDS011;6870;50.944;6.932;2022-12-11T03:49:18;7.33;;;5.20;;
7340;SDS011;6870;50.944;6.932;2022-12-11T03:51:51;8.00;;;5.50;;
7340;SDS011;6870;50.944;6.932;2022-12-11T03:54:21;7.37;;;5.77;;
7340;SDS011;6870;50.944;6.932;2022-12-11T03:56:51;11.80;;;5.27;;
7340;SDS011;6870;50.944;6.932;2022-12-11T03:59:23;7.13;;;5.00;;
7340;SDS011;6870;50.944;6.932;2022-12-11T04:01:53;6.03;;;4.90;;
7340;SDS011;6870;50.944;6.932;2022-12-11T04:04:21;6.53;;;5.23;;
7340;SDS011;6870;50.944;6.932;2022-12-11T04:06:49;8.30;;;5.43;;
7340;SDS011;6870;50.944;6.932;2022-12-11T04:09:17;6.13;;;5.10;;
7340;SDS011;6870;50.944;6.932;2022-12-11T04:11:45;6.20;;;4.83;;
7340;SDS011;6870;50.944;6.932;2022-12-11T04:14:13;6.93;;;5.60;;
7340;SDS011;6870;50.944;6.932;2022-12-11T04:17:00;6.53;;;5.23;;
7340;SDS011;6870;50.944;6.932;2022-12-11T04:19:28;7.00;;;5.77;;
7340;SDS011;6870;50.944;6.932;2022-12-11T04:22:15;6.60;;;4.90;;
7340;SDS011;6870;50.944;6.932;2022-12-11T04:25:03;6.50;;;5.80;;
7340;SDS011;6870;50.944;6.932;2022-12-11T04:27:34;6.27;;;4.77;;
7340;SDS011;6870;50.944;6.932;2022-12-11T04:30:19;5.20;;;4.70;;
7340;SDS011;6870;50.944;6.932;2022-12-11T04:32:53;8.23;;;5.47;;
7340;SDS011;6870;50.944;6.932;2022-12-11T04:35:22;5.30;;;4.20;;
7340;SDS011;6870;50.944;6.932;2022-12-11T04:37:50;5.50;;;5.00;;
7340;SDS011;6870;50.944;6.932;2022-12-11T04:40:19;5.93;;;4.77;;
7340;SDS011;6870;50.944;6.932;2022-12-11T04:42:47;6.33;;;4.90;;
7340;SDS011;6870;50.944;6.932;2022-12-11T04:45:15;5.10;;;4.60;;
7340;SDS011;6870;50.944;6.932;2022-12-11T04:47:44;6.30;;;4.73;;
7340;SDS011;6870;50.944;6.932;2022-12-11T04:50:13;6.20;;;5.27;;
7340;SDS011;6870;50.944;6.932;2022-12-11T04:52:42;5.40;;;4.00;;
7340;SDS011;6870;50.944;6.932;2022-12-11T04:55:10;4.90;;;4.10;;
7340;SDS011;6870;50.944;6.932;2022-12-11T04:57:39;6.67;;;4.73;;
7340;SDS011;6870;50.944;6.932;2022-12-11T05:00:08;4.30;;;3.90;;
7340;SDS011;6870;50.944;6.932;2022-12-11T05:02:39;6.13;;;4.57;;
7340;SDS011;6870;50.944;6.932;2022-12-11T05:05:09;4.50;;;3.57;;
7340;SDS011;6870;50.944;6.932;2022-12-11T05:07:39;7.33;;;5.17;;
7340;SDS011;6870;50.944;6.932;2022-12-11T05:10:08;6.43;;;4.57;;
7340;SDS011;6870;50.944;6.932;2022-12-11T05:12:36;5.50;;;4.33;;
7340;SDS011;6870;50.944;6.932;2022-12-11T05:15:05;7.17;;;4.80;;
7340;SDS011;6870;50.944;6.932;2022-12-11T05:17:35;4.70;;;4.17;;
7340;SDS011;6870;50.944;6.932;2022-12-11T05:20:03;5.90;;;4.70;;
7340;SDS011;6870;50.944;6.932;2022-12-11T05:22:32;6.10;;;4.20;;
7340;SDS011;6870;50.944;6.932;2022-12-11T05:25:01;6.23;;;4.53;;
7340;SDS011;6870;50.944;6.932;2022-12-11T05:27:30;6.60;;;4.60;;
7340;SDS011;6870;50.944;6.932;2022-12-11T05:29:58;5.93;;;5.00;;
7340;SDS011;6870;50.944;6.932;2022-12-11T05:32:27;6.40;;;4.90;;
7340;SDS011;6870;50.944;6.932;2022-12-11T05:34:55;4.80;;;4.33;;
7340;SDS011;6870;50.944;6.932;2022-12-11T05:37:23;7.07;;;5.00;;
7340;SDS011;6870;50.944;6.932;2022-12-11T05:39:51;6.23;;;4.70;;
7340;SDS011;6870;50.944;6.932;2022-12-11T05:42:20;5.67;;;5.07;;
7340;SDS011;6870;50.944;6.932;2022-12-11T05:44:54;6.03;;;4.00;;
7340;SDS011;6870;50.944;6.932;2022-12-11T05:47:22;4.73;;;4.00;;
7340;SDS011;6870;50.944;6.932;2022-12-11T05:49:50;5.97;;;5.33;;
7340;SDS011;6870;50.944;6.932;2022-12-11T05:52:18;6.20;;;4.73;;
7340;SDS011;6870;50.944;6.932;2022-12-11T05:54:47;7.27;;;4.60;;
7340;SDS011;6870;50.944;6.932;2022-12-11T05:57:15;5.27;;;4.77;;
7340;SDS011;6870;50.944;6.932;2022-12-11T05:59:45;5.67;;;4.57;;
7340;SDS011;6870;50.944;6.932;2022-12-11T06:02:13;4.47;;;4.00;;
7340;SDS011;6870;50.944;6.932;2022-12-11T06:04:41;5.00;;;4.50;;
7340;SDS011;6870;50.944;6.932;2022-12-11T06:07:09;6.13;;;4.80;;
7340;SDS011;6870;50.944;6.932;2022-12-11T06:09:37;6.73;;;4.90;;
7340;SDS011;6870;50.944;6.932;2022-12-11T06:12:05;4.17;;;3.27;;
7340;SDS011;6870;50.944;6.932;2022-12-11T06:14:33;5.80;;;4.27;;
7340;SDS011;6870;50.944;6.932;2022-12-11T06:17:02;6.13;;;4.47;;
7340;SDS011;6870;50.944;6.932;2022-12-11T06:19:30;6.50;;;4.20;;
7340;SDS011;6870;50.944;6.932;2022-12-11T06:22:02;4.47;;;4.07;;
7340;SDS011;6870;50.944;6.932;2022-12-11T06:24:30;4.20;;;3.80;;
7340;SDS011;6870;50.944;6.932;2022-12-11T06:26:58;4.73;;;3.83;;
7340;SDS011;6870;50.944;6.932;2022-12-11T06:29:26;6.07;;;4.40;;
7340;SDS011;6870;50.944;6.932;2022-12-11T06:31:55;4.50;;;3.67;;
7340;SDS011;6870;50.944;6.932;2022-12-11T06:34:24;4.30;;;3.57;;
7340;SDS011;6870;50.944;6.932;2022-12-11T06:36:52;4.80;;;3.93;;
7340;SDS011;6870;50.944;6.932;2022-12-11T06:39:20;5.20;;;4.30;;
7340;SDS011;6870;50.944;6.932;2022-12-11T06:41:48;5.80;;;3.93;;
7340;SDS011;6870;50.944;6.932;2022-12-11T06:44:16;4.37;;;3.90;;
7340;SDS011;6870;50.944;6.932;2022-12-11T06:46:44;6.47;;;4.50;;
7340;SDS011;6870;50.944;6.932;2022-12-11T06:49:12;6.57;;;4.47;;
7340;SDS011;6870;50.944;6.932;2022-12-11T06:51:41;5.00;;;3.53;;
7340;SDS011;6870;50.944;6.932;2022-12-11T06:54:10;4.77;;;3.73;;
7340;SDS011;6870;50.944;6.932;2022-12-11T06:56:37;4.30;;;3.60;;
7340;SDS011;6870;50.944;6.932;2022-12-11T06:59:05;6.30;;;4.07;;
7340;SDS011;6870;50.944;6.932;2022-12-11T07:01:37;5.10;;;3.93;;
7340;SDS011;6870;50.944;6.932;2022-12-11T07:04:06;5.50;;;3.90;;
7340;SDS011;6870;50.944;6.932;2022-12-11T07:06:35;5.23;;;4.20;;
7340;SDS011;6870;50.944;6.932;2022-12-11T07:09:05;4.33;;;3.87;;
7340;SDS011;6870;50.944;6.932;2022-12-11T07:11:33;4.83;;;3.43;;
7340;SDS011;6870;50.944;6.932;2022-12-11T07:14:01;5.83;;;3.87;;
7340;SDS011;6870;50.944;6.932;2022-12-11T07:16:29;4.50;;;3.30;;
7340;SDS011;6870;50.944;6.932;2022-12-11T07:18:57;4.80;;;3.73;;
7340;SDS011;6870;50.944;6.932;2022-12-11T07:21:26;6.60;;;4.07;;
7340;SDS011;6870;50.944;6.932;2022-12-11T07:23:55;3.83;;;3.30;;
7340;SDS011;6870;50.944;6.932;2022-12-11T07:26:24;4.50;;;3.50;;
7340;SDS011;6870;50.944;6.932;2022-12-11T07:28:55;4.10;;;3.07;;
7340;SDS011;6870;50.944;6.932;2022-12-11T07:31:24;4.77;;;3.50;;
7340;SDS011;6870;50.944;6.932;2022-12-11T07:33:57;4.80;;;3.47;;
7340;SDS011;6870;50.944;6.932;2022-12-11T07:36:28;3.80;;;2.90;;
7340;SDS011;6870;50.944;6.932;2022-12-11T07:38:57;5.10;;;4.20;;
7340;SDS011;6870;50.944;6.932;2022-12-11T07:41:27;5.37;;;3.53;;
7340;SDS011;6870;50.944;6.932;2022-12-11T07:43:59;4.20;;;3.50;;
7340;SDS011;6870;50.944;6.932;2022-12-11T07:46:28;4.07;;;3.23;;
7340;SDS011;6870;50.944;6.932;2022-12-11T07:48:58;6.30;;;3.20;;
7340;SDS011;6870;50.944;6.932;2022-12-11T07:51:27;3.93;;;3.33;;
7340;SDS011;6870;50.944;6.932;2022-12-11T07:53:59;4.77;;;3.63;;
7340;SDS011;6870;50.944;6.932;2022-12-11T07:56:30;11.93;;;3.37;;
7340;SDS011;6870;50.944;6.932;2022-12-11T07:59:00;6.23;;;3.23;;
7340;SDS011;6870;50.944;6.932;2022-12-11T08:01:29;7.10;;;4.00;;
7340;SDS011;6870;50.944;6.932;2022-12-11T08:04:02;4.03;;;3.27;;
7340;SDS011;6870;50.944;6.932;2022-12-11T08:06:32;6.10;;;3.10;;
7340;SDS011;6870;50.944;6.932;2022-12-11T08:09:03;5.13;;;3.40;;
7340;SDS011;6870;50.944;6.932;2022-12-11T08:11:35;3.67;;;2.90;;
7340;SDS011;6870;50.944;6.932;2022-12-11T08:14:03;4.00;;;3.07;;
7340;SDS011;6870;50.944;6.932;2022-12-11T08:16:33;4.60;;;3.27;;
7340;SDS011;6870;50.944;6.932;2022-12-11T08:19:03;5.13;;;3.17;;
7340;SDS011;6870;50.944;6.932;2022-12-11T08:21:31;6.07;;;4.17;;
7340;SDS011;6870;50.944;6.932;2022-12-11T08:23:59;4.40;;;3.17;;
7340;SDS011;6870;50.944;6.932;2022-12-11T08:26:27;4.10;;;3.63;;
7340;SDS011;6870;50.944;6.932;2022-12-11T08:28:59;3.90;;;2.70;;
7340;SDS011;6870;50.944;6.932;2022-12-11T08:31:28;4.87;;;3.87;;
7340;SDS011;6870;50.944;6.932;2022-12-11T08:33:56;6.30;;;3.53;;
7340;SDS011;6870;50.944;6.932;2022-12-11T08:36:24;4.53;;;3.20;;
7340;SDS011;6870;50.944;6.932;2022-12-11T08:38:53;5.63;;;4.27;;
7340;SDS011;6870;50.944;6.932;2022-12-11T08:41:22;4.10;;;3.33;;
7340;SDS011;6870;50.944;6.932;2022-12-11T08:43:53;4.33;;;3.33;;
7340;SDS011;6870;50.944;6.932;2022-12-11T08:46:24;3.60;;;2.80;;
7340;SDS011;6870;50.944;6.932;2022-12-11T08:48:55;4.33;;;3.50;;
7340;SDS011;6870;50.944;6.932;2022-12-11T08:51:24;5.07;;;3.20;;
7340;SDS011;6870;50.944;6.932;2022-12-11T08:53:55;3.60;;;3.07;;
7340;SDS011;6870;50.944;6.932;2022-12-11T08:56:25;4.40;;;3.63;;
7340;SDS011;6870;50.944;6.932;2022-12-11T08:58:55;3.33;;;2.90;;
7340;SDS011;6870;50.944;6.932;2022-12-11T09:01:27;4.20;;;3.23;;
7340;SDS011;6870;50.944;6.932;2022-12-11T09:03:55;6.03;;;3.20;;
7340;SDS011;6870;50.944;6.932;2022-12-11T09:06:25;3.63;;;3.00;;
7340;SDS011;6870;50.944;6.932;2022-12-11T09:08:57;3.90;;;3.07;;
7340;SDS011;6870;50.944;6.932;2022-12-11T09:11:27;4.40;;;2.90;;
7340;SDS011;6870;50.944;6.932;2022-12-11T09:13:57;5.40;;;3.10;;
7340;SDS011;6870;50.944;6.932;2022-12-11T09:16:34;3.40;;;3.10;;
7340;SDS011;6870;50.944;6.932;2022-12-11T09:19:06;5.73;;;2.93;;
7340;SDS011;6870;50.944;6.932;2022-12-11T09:21:38;3.33;;;2.63;;
7340;SDS011;6870;50.944;6.932;2022-12-11T09:24:07;3.30;;;2.80;;
7340;SDS011;6870;50.944;6.932;2022-12-11T09:26:37;3.57;;;3.00;;
7340;SDS011;6870;50.944;6.932;2022-12-11T09:29:06;6.00;;;3.63;;
7340;SDS011;6870;50.944;6.932;2022-12-11T09:31:35;4.50;;;3.00;;
7340;SDS011;6870;50.944;6.932;2022-12-11T09:34:04;3.47;;;3.00;;
7340;SDS011;6870;50.944;6.932;2022-12-11T09:36:36;3.87;;;2.60;;
7340;SDS011;6870;50.944;6.932;2022-12-11T09:39:06;5.47;;;3.00;;
7340;SDS011;6870;50.944;6.932;2022-12-11T09:41:36;2.90;;;2.60;;
7340;SDS011;6870;50.944;6.932;2022-12-11T09:44:12;3.80;;;3.00;;
7340;SDS011;6870;50.944;6.932;2022-12-11T09:46:47;3.40;;;2.73;;
7340;SDS011;6870;50.944;6.932;2022-12-11T09:49:20;3.10;;;2.70;;
7340;SDS011;6870;50.944;6.932;2022-12-11T09:51:57;4.07;;;2.93;;
7340;SDS011;6870;50.944;6.932;2022-12-11T09:54:34;3.73;;;3.13;;
7340;SDS011;6870;50.944;6.932;2022-12-11T09:57:06;3.50;;;3.20;;
7340;SDS011;6870;50.944;6.932;2022-12-11T09:59:46;4.83;;;2.83;;
7340;SDS011;6870;50.944;6.932;2022-12-11T10:02:36;5.43;;;3.30;;
7340;SDS011;6870;50.944;6.932;2022-12-11T10:05:16;3.93;;;2.57;;
7340;SDS011;6870;50.944;6.932;2022-12-11T10:07:55;4.90;;;3.30;;
7340;SDS011;6870;50.944;6.932;2022-12-11T10:10:34;4.77;;;2.70;;
7340;SDS011;6870;50.944;6.932;2022-12-11T10:13:11;3.67;;;3.30;;
7340;SDS011;6870;50.944;6.932;2022-12-11T10:15:50;9.73;;;3.37;;
7340;SDS011;6870;50.944;6.932;2022-12-11T10:18:25;3.97;;;2.60;;
7340;SDS011;6870;50.944;6.932;2022-12-11T10:20:55;3.07;;;2.53;;
7340;SDS011;6870;50.944;6.932;2022-12-11T10:23:28;3.67;;;2.60;;
7340;SDS011;6870;50.944;6.932;2022-12-11T10:26:03;3.87;;;2.60;;
7340;SDS011;6870;50.944;6.932;2022-12-11T10:28:34;13.60;;;7.00;;
7340;SDS011;6870;50.944;6.932;2022-12-11T10:31:04;10.47;;;6.33;;
7340;SDS011;6870;50.944;6.932;2022-12-11T10:33:43;8.67;;;7.63;;
7340;SDS011;6870;50.944;6.932;2022-12-11T10:36:24;11.13;;;6.43;;
7340;SDS011;6870;50.944;6.932;2022-12-11T10:38:56;9.73;;;6.93;;
7340;SDS011;6870;50.944;6.932;2022-12-11T10:41:29;9.10;;;5.90;;
7340;SDS011;6870;50.944;6.932;2022-12-11T10:44:12;8.83;;;6.40;;
7340;SDS011;6870;50.944;6.932;2022-12-11T10:46:42;9.07;;;6.20;;
7340;SDS011;6870;50.944;6.932;2022-12-11T10:49:21;10.07;;;5.70;;
7340;SDS011;6870;50.944;6.932;2022-12-11T10:51:51;8.10;;;5.70;;
7340;SDS011;6870;50.944;6.932;2022-12-11T10:54:28;8.00;;;6.20;;
7340;SDS011;6870;50.944;6.932;2022-12-11T10:57:00;12.40;;;5.77;;
7340;SDS011;6870;50.944;6.932;2022-12-11T10:59:32;6.47;;;4.73;;
7340;SDS011;6870;50.944;6.932;2022-12-11T11:02:05;6.00;;;5.20;;
7340;SDS011;6870;50.944;6.932;2022-12-11T11:04:47;8.23;;;5.50;;
7340;SDS011;6870;50.944;6.932;2022-12-11T11:07:18;6.83;;;4.80;;
7340;SDS011;6870;50.944;6.932;2022-12-11T11:09:49;7.73;;;5.50;;
7340;SDS011;6870;50.944;6.932;2022-12-11T11:12:20;6.23;;;5.30;;
7340;SDS011;6870;50.944;6.932;2022-12-11T11:14:59;7.43;;;5.17;;
7340;SDS011;6870;50.944;6.932;2022-12-11T11:17:29;6.10;;;4.57;;
7340;SDS011;6870;50.944;6.932;2022-12-11T11:20:05;7.47;;;4.97;;
7340;SDS011;6870;50.944;6.932;2022-12-11T11:22:43;7.73;;;5.27;;
7340;SDS011;6870;50.944;6.932;2022-12-11T11:25:15;7.87;;;5.73;;
7340;SDS011;6870;50.944;6.932;2022-12-11T11:27:49;6.50;;;4.60;;
7340;SDS011;6870;50.944;6.932;2022-12-11T11:30:20;6.40;;;5.73;;
7340;SDS011;6870;50.944;6.932;2022-12-11T11:32:52;5.90;;;4.80;;
7340;SDS011;6870;50.944;6.932;2022-12-11T11:35:25;7.73;;;6.17;;
7340;SDS011;6870;50.944;6.932;2022-12-11T11:38:02;10.57;;;6.80;;
7340;SDS011;6870;50.944;6.932;2022-12-11T11:40:41;12.57;;;6.83;;
7340;SDS011;6870;50.944;6.932;2022-12-11T11:43:15;11.50;;;7.80;;
7340;SDS011;6870;50.944;6.932;2022-12-11T11:45:49;9.37;;;6.20;;
7340;SDS011;6870;50.944;6.932;2022-12-11T11:48:26;8.73;;;6.57;;
7340;SDS011;6870;50.944;6.932;2022-12-11T11:51:05;12.27;;;6.10;;
7340;SDS011;6870;50.944;6.932;2022-12-11T11:53:41;9.60;;;7.23;;
7340;SDS011;6870;50.944;6.932;2022-12-11T11:56:16;10.47;;;6.50;;
7340;SDS011;6870;50.944;6.932;2022-12-11T11:58:51;8.37;;;6.23;;
7340;SDS011;6870;50.944;6.932;2022-12-11T12:01:28;9.20;;;6.57;;
7340;SDS011;6870;50.944;6.932;2022-12-11T12:03:56;12.47;;;6.30;;
7340;SDS011;6870;50.944;6.932;2022-12-11T12:06:29;11.80;;;6.20;;
7340;SDS011;6870;50.944;6.932;2022-12-11T12:09:22;9.70;;;5.97;;
7340;SDS011;6870;50.944;6.932;2022-12-11T12:12:07;9.80;;;5.97;;
7340;SDS011;6870;50.944;6.932;2022-12-11T12:14:54;8.20;;;6.43;;
7340;SDS011;6870;50.944;6.932;2022-12-11T12:17:38;10.17;;;6.23;;
7340;SDS011;6870;50.944;6.932;2022-12-11T12:20:24;8.40;;;5.77;;
7340;SDS011;6870;50.944;6.932;2022-12-11T12:23:06;8.57;;;6.17;;
7340;SDS011;6870;50.944;6.932;2022-12-11T12:25:51;10.93;;;5.77;;
7340;SDS011;6870;50.944;6.932;2022-12-11T12:28:29;10.53;;;6.27;;
7340;SDS011;6870;50.944;6.932;2022-12-11T12:31:17;7.57;;;6.00;;
7340;SDS011;6870;50.944;6.932;2022-12-11T12:33:59;8.03;;;6.53;;
7340;SDS011;6870;50.944;6.932;2022-12-11T12:36:38;10.53;;;6.20;;
7340;SDS011;6870;50.944;6.932;2022-12-11T12:39:19;9.53;;;6.17;;
7340;SDS011;6870;50.944;6.932;2022-12-11T12:41:56;10.67;;;6.50;;
7340;SDS011;6870;50.944;6.932;2022-12-11T12:44:45;15.90;;;5.83;;
7340;SDS011;6870;50.944;6.932;2022-12-11T12:47:25;8.73;;;5.80;;
7340;SDS011;6870;50.944;6.932;2022-12-11T12:49:55;8.33;;;6.47;;
7340;SDS011;6870;50.944;6.932;2022-12-11T12:52:27;9.03;;;6.70;;
7340;SDS011;6870;50.944;6.932;2022-12-11T12:55:00;8.97;;;6.77;;
7340;SDS011;6870;50.944;6.932;2022-12-11T12:57:48;8.67;;;6.00;;
7340;SDS011;6870;50.944;6.932;2022-12-11T13:00:29;8.93;;;6.90;;
7340;SDS011;6870;50.944;6.932;2022-12-11T13:03:02;8.00;;;6.20;;
7340;SDS011;6870;50.944;6.932;2022-12-11T13:05:41;8.90;;;6.90;;
7340;SDS011;6870;50.944;6.932;2022-12-11T13:08:11;8.80;;;5.83;;
7340;SDS011;6870;50.944;6.932;2022-12-11T13:10:57;8.90;;;6.40;;
7340;SDS011;6870;50.944;6.932;2022-12-11T13:13:30;13.00;;;6.40;;
7340;SDS011;6870;50.944;6.932;2022-12-11T13:16:06;12.70;;;6.87;;
7340;SDS011;6870;50.944;6.932;2022-12-11T13:18:51;8.10;;;6.63;;
7340;SDS011;6870;50.944;6.932;2022-12-11T13:21:24;8.50;;;5.63;;
7340;SDS011;6870;50.944;6.932;2022-12-11T13:24:11;9.07;;;6.27;;
7340;SDS011;6870;50.944;6.932;2022-12-11T13:26:44;8.67;;;6.00;;
7340;SDS011;6870;50.944;6.932;2022-12-11T13:29:29;10.07;;;6.43;;
7340;SDS011;6870;50.944;6.932;2022-12-11T13:32:01;9.40;;;6.50;;
7340;SDS011;6870;50.944;6.932;2022-12-11T13:34:49;8.60;;;6.47;;
7340;SDS011;6870;50.944;6.932;2022-12-11T13:37:21;8.87;;;7.30;;
7340;SDS011;6870;50.944;6.932;2022-12-11T13:39:54;9.67;;;6.20;;
7340;SDS011;6870;50.944;6.932;2022-12-11T13:42:26;9.83;;;5.90;;
7340;SDS011;6870;50.944;6.932;2022-12-11T13:44:58;13.23;;;6.63;;
7340;SDS011;6870;50.944;6.932;2022-12-11T13:47:28;23.57;;;10.00;;
7340;SDS011;6870;50.944;6.932;2022-12-11T13:50:10;16.47;;;9.43;;
7340;SDS011;6870;50.944;6.932;2022-12-11T13:52:51;16.03;;;8.90;;
7340;SDS011;6870;50.944;6.932;2022-12-11T13:55:21;14.17;;;8.23;;
7340;SDS011;6870;50.944;6.932;2022-12-11T13:57:53;20.30;;;9.10;;
7340;SDS011;6870;50.944;6.932;2022-12-11T14:00:22;16.00;;;7.77;;
7340;SDS011;6870;50.944;6.932;2022-12-11T14:02:53;13.53;;;7.77;;
7340;SDS011;6870;50.944;6.932;2022-12-11T14:05:23;16.23;;;7.30;;
7340;SDS011;6870;50.944;6.932;2022-12-11T14:07:52;10.07;;;7.30;;
7340;SDS011;6870;50.944;6.932;2022-12-11T14:10:24;13.77;;;7.90;;
7340;SDS011;6870;50.944;6.932;2022-12-11T14:12:56;15.33;;;6.80;;
7340;SDS011;6870;50.944;6.932;2022-12-11T14:15:29;11.57;;;7.43;;
7340;SDS011;6870;50.944;6.932;2022-12-11T14:17:59;17.07;;;7.80;;
7340;SDS011;6870;50.944;6.932;2022-12-11T14:20:28;11.23;;;7.27;;
7340;SDS011;6870;50.944;6.932;2022-12-11T14:23:03;11.97;;;7.63;;
7340;SDS011;6870;50.944;6.932;2022-12-11T14:25:32;11.03;;;5.83;;
7340;SDS011;6870;50.944;6.932;2022-12-11T14:28:01;16.47;;;7.50;;
7340;SDS011;6870;50.944;6.932;2022-12-11T14:30:30;15.50;;;7.00;;
7340;SDS011;6870;50.944;6.932;2022-12-11T14:33:01;16.07;;;8.13;;
7340;SDS011;6870;50.944;6.932;2022-12-11T14:35:32;13.27;;;7.17;;
7340;SDS011;6870;50.944;6.932;2022-12-11T14:38:06;9.53;;;6.80;;
7340;SDS011;6870;50.944;6.932;2022-12-11T14:40:41;10.90;;;6.57;;
7340;SDS011;6870;50.944;6.932;2022-12-11T14:43:13;13.40;;;7.60;;
7340;SDS011;6870;50.944;6.932;2022-12-11T14:45:48;13.47;;;6.33;;
7340;SDS011;6870;50.944;6.932;2022-12-11T14:48:24;10.70;;;8.70;;
7340;SDS011;6870;50.944;6.932;2022-12-11T14:50:59;12.67;;;7.30;;
7340;SDS011;6870;50.944;6.932;2022-12-11T14:53:31;12.57;;;6.37;;
7340;SDS011;6870;50.944;6.932;2022-12-11T14:56:04;9.23;;;6.30;;
7340;SDS011;6870;50.944;6.932;2022-12-11T14:58:38;10.63;;;6.57;;
7340;SDS011;6870;50.944;6.932;2022-12-11T15:01:20;11.37;;;6.50;;
7340;SDS011;6870;50.944;6.932;2022-12-11T15:04:00;12.70;;;7.00;;
7340;SDS011;6870;50.944;6.932;2022-12-11T15:06:32;11.60;;;6.60;;
7340;SDS011;6870;50.944;6.932;2022-12-11T15:09:09;10.40;;;7.10;;
7340;SDS011;6870;50.944;6.932;2022-12-11T15:11:46;10.83;;;6.40;;
7340;SDS011;6870;50.944;6.932;2022-12-11T15:14:18;12.63;;;6.20;;
7340;SDS011;6870;50.944;6.932;2022-12-11T15:16:49;7.80;;;5.90;;
7340;SDS011;6870;50.944;6.932;2022-12-11T15:19:21;8.37;;;6.33;;
7340;SDS011;6870;50.944;6.932;2022-12-11T15:21:53;12.10;;;6.07;;
7340;SDS011;6870;50.944;6.932;2022-12-11T15:24:24;8.77;;;6.60;;
7340;SDS011;6870;50.944;6.932;2022-12-11T15:26:56;15.60;;;6.40;;
7340;SDS011;6870;50.944;6.932;2022-12-11T15:29:29;12.53;;;7.70;;
7340;SDS011;6870;50.944;6.932;2022-12-11T15:32:02;14.70;;;6.10;;
7340;SDS011;6870;50.944;6.932;2022-12-11T15:34:45;10.20;;;6.20;;
7340;SDS011;6870;50.944;6.932;2022-12-11T15:37:19;8.80;;;6.67;;
7340;SDS011;6870;50.944;6.932;2022-12-11T15:39:49;13.90;;;5.67;;
7340;SDS011;6870;50.944;6.932;2022-12-11T15:42:19;12.13;;;6.27;;
7340;SDS011;6870;50.944;6.932;2022-12-11T15:44:54;12.30;;;6.47;;
7340;SDS011;6870;50.944;6.932;2022-12-11T15:47:23;9.10;;;4.60;;